createdAt,value
2022-09-15T00:05:01.717Z,59.91
2022-09-15T00:10:06.386Z,61.52
2022-09-15T00:15:09.895Z,67.13
2022-09-15T00:20:12.636Z,58.45
2022-09-15T00:25:15.577Z,56.56
2022-09-15T00:30:18.320Z,59.68
2022-09-15T00:35:21.147Z,61.42
2022-09-15T00:40:24.016Z,66.56
2022-09-15T00:45:27.385Z,58.23
2022-09-15T00:50:32.102Z,56.82
2022-09-15T00:55:54.349Z,59.65
2022-09-15T01:01:01.065Z,61.34
2022-09-15T01:06:20.025Z,67.37
2022-09-15T01:11:22.908Z,58.63
2022-09-15T01:22:07.364Z,59.06
2022-09-15T01:27:41.201Z,64.58
2022-09-15T01:33:06.798Z,61.17
2022-09-15T01:38:32.133Z,56.07
2022-09-15T01:43:40.313Z,59.42
2022-09-15T01:48:43.545Z,65.52
2022-09-15T01:53:47.427Z,57.61
2022-09-15T01:58:51.530Z,57.06
2022-09-15T02:04:18.226Z,60.24
2022-09-15T02:09:54.870Z,66.11
2022-09-15T02:15:08.755Z,56.96
2022-09-15T02:20:23.759Z,58.33
2022-09-15T02:25:32.811Z,60.76
2022-09-15T02:30:41.282Z,66.04
2022-09-15T02:35:44.359Z,57.96
2022-09-15T02:40:48.094Z,57.31
2022-09-15T02:45:51.328Z,60.30
2022-09-15T02:50:54.125Z,66.18
2022-09-15T02:55:58.123Z,58.68
2022-09-15T03:01:08.297Z,57.17
2022-09-15T03:06:19.892Z,60.18
2022-09-15T03:11:26.789Z,66.72
2022-09-15T03:16:32.523Z,58.45
2022-09-15T03:21:35.862Z,58.10
2022-09-15T03:26:38.692Z,61.33
2022-09-15T03:31:41.838Z,67.35
2022-09-15T03:36:44.755Z,59.16
2022-09-15T03:41:47.682Z,57.26
2022-09-15T03:46:51.259Z,61.07
2022-09-15T03:51:54.028Z,66.63
2022-09-15T03:56:57.125Z,59.83
2022-09-15T04:01:59.959Z,56.61
2022-09-15T04:07:02.707Z,59.86
2022-09-15T04:12:06.971Z,65.86
2022-09-15T04:17:10.965Z,58.42
2022-09-15T04:22:17.672Z,57.83
2022-09-15T04:27:21.113Z,62.07
2022-09-15T04:32:23.923Z,65.57
2022-09-15T04:37:26.841Z,57.86
2022-09-15T04:42:29.625Z,59.04
2022-09-15T04:47:32.330Z,65.01
2022-09-15T04:52:35.058Z,59.05
2022-09-15T04:57:37.827Z,57.97
2022-09-15T05:02:40.535Z,61.62
2022-09-15T05:07:43.660Z,67.86
2022-09-15T05:12:46.448Z,59.60
2022-09-15T05:17:49.985Z,57.61
2022-09-15T05:22:52.706Z,63.83
2022-09-15T05:27:55.446Z,57.83
2022-09-15T05:32:58.400Z,58.40
2022-09-15T05:38:01.125Z,63.99
2022-09-15T05:43:03.995Z,59.60
2022-09-15T05:48:06.781Z,56.15
2022-09-15T05:53:12.158Z,59.42
2022-09-15T05:58:23.398Z,63.02
2022-09-15T06:03:30.926Z,50.60
2022-09-15T06:08:36.780Z,46.47
2022-09-15T06:13:40.485Z,41.39
2022-09-15T06:18:43.938Z,38.81
2022-09-15T06:23:53.996Z,40.67
2022-09-15T06:29:02.155Z,44.78
2022-09-15T06:34:11.552Z,45.88
2022-09-15T06:39:14.287Z,49.51
2022-09-15T06:44:17.423Z,51.80
2022-09-15T06:49:21.965Z,53.56
2022-09-15T06:54:24.749Z,53.91
2022-09-15T06:59:27.957Z,55.98
2022-09-15T07:04:38.398Z,56.53
2022-09-15T07:09:42.802Z,55.93
2022-09-15T07:14:47.068Z,48.35
2022-09-15T07:19:50.078Z,43.41
2022-09-15T07:24:52.972Z,40.33
2022-09-15T07:29:56.119Z,38.76
2022-09-15T07:34:59.397Z,39.88
2022-09-15T07:40:04.928Z,44.07
2022-09-15T07:45:08.371Z,44.63
2022-09-15T07:50:11.528Z,45.41
2022-09-15T07:55:15.768Z,43.27
2022-09-15T08:00:18.896Z,38.27
2022-09-15T08:05:26.119Z,35.26
2022-09-15T08:10:28.870Z,33.72
2022-09-15T08:15:31.809Z,32.28
2022-09-15T08:20:34.927Z,31.70
2022-09-15T08:25:40.846Z,31.03
2022-09-15T08:30:46.242Z,31.74
2022-09-15T08:35:49.212Z,34.21
2022-09-15T08:41:00.527Z,36.80
2022-09-15T08:46:09.221Z,39.56
2022-09-15T08:51:20.764Z,42.37
2022-09-15T08:56:23.532Z,44.04
2022-09-15T09:01:45.076Z,45.43
2022-09-15T09:07:14.604Z,44.73
2022-09-15T09:12:44.851Z,44.59
2022-09-15T09:18:27.020Z,45.15
2022-09-15T09:23:43.161Z,44.72
2022-09-15T09:28:50.373Z,45.43
2022-09-15T09:34:16.496Z,47.13
2022-09-15T09:39:19.292Z,47.98
2022-09-15T09:44:32.125Z,47.86
2022-09-15T09:49:40.044Z,48.05
2022-09-15T09:54:42.901Z,49.43
2022-09-15T09:59:47.743Z,50.55
2022-09-15T10:04:50.657Z,51.10
2022-09-15T10:09:59.842Z,51.90
2022-09-15T10:15:06.842Z,52.90
2022-09-15T10:20:25.552Z,53.34
2022-09-15T10:25:49.354Z,53.41
2022-09-15T10:31:03.348Z,54.12
2022-09-15T10:36:08.457Z,54.95
2022-09-15T10:41:31.200Z,55.07
2022-09-15T10:46:50.665Z,56.26
2022-09-15T10:52:13.634Z,56.76
2022-09-15T10:57:35.903Z,57.19
2022-09-15T11:03:09.834Z,57.26
2022-09-15T11:08:20.818Z,56.90
2022-09-15T11:13:26.740Z,56.41
2022-09-15T11:18:50.446Z,56.48
2022-09-15T11:24:34.225Z,56.84
2022-09-15T11:30:02.568Z,57.57
2022-09-15T11:35:38.464Z,57.21
2022-09-15T11:41:19.112Z,56.94
2022-09-15T11:46:51.014Z,56.79
2022-09-15T11:52:23.286Z,56.68
2022-09-15T11:57:32.211Z,56.06
2022-09-15T12:03:13.749Z,56.15
2022-09-15T12:08:27.436Z,56.37
2022-09-15T12:13:31.810Z,55.38
2022-09-15T12:18:54.369Z,54.71
2022-09-15T12:24:46.119Z,54.99
2022-09-15T12:29:57.524Z,54.46
2022-09-15T12:35:15.747Z,53.82
2022-09-15T12:40:33.557Z,53.30
2022-09-15T12:45:37.173Z,52.55
2022-09-15T12:50:43.447Z,52.45
2022-09-15T12:56:20.929Z,52.48
2022-09-15T13:01:24.655Z,52.01
2022-09-15T13:06:29.975Z,51.75
2022-09-15T13:11:47.545Z,51.31
2022-09-15T13:17:06.701Z,50.96
2022-09-15T13:22:12.152Z,50.51
2022-09-15T13:27:22.423Z,50.46
2022-09-15T13:32:40.348Z,50.27
2022-09-15T13:38:32.272Z,51.08
2022-09-15T13:44:18.003Z,51.51
2022-09-15T13:49:49.446Z,51.75
2022-09-15T13:55:21.769Z,51.64
2022-09-15T14:00:24.748Z,51.35
2022-09-15T14:05:31.050Z,51.64
2022-09-15T14:10:42.134Z,51.04
2022-09-15T14:16:02.299Z,50.84
2022-09-15T14:21:06.076Z,50.84
2022-09-15T14:26:14.932Z,52.12
2022-09-15T14:31:26.521Z,53.55
2022-09-15T14:36:33.708Z,54.16
2022-09-15T14:41:37.131Z,54.47
2022-09-15T14:46:39.936Z,55.94
2022-09-15T14:51:49.141Z,56.36
2022-09-15T14:56:54.199Z,56.79
2022-09-15T15:02:06.259Z,57.52
2022-09-15T15:07:20.123Z,57.74
2022-09-15T15:12:36.226Z,57.91
2022-09-15T15:17:51.102Z,58.72
2022-09-15T15:23:24.577Z,58.27
2022-09-15T15:28:37.761Z,58.60
2022-09-15T15:34:24.270Z,58.69
2022-09-15T15:39:27.090Z,58.28
2022-09-15T15:44:31.476Z,58.03
2022-09-15T15:49:34.708Z,57.76
2022-09-15T15:54:41.862Z,57.60
2022-09-15T15:59:46.950Z,56.93
2022-09-15T16:04:49.913Z,56.92
2022-09-15T16:09:56.430Z,56.82
2022-09-15T16:14:59.162Z,56.74
2022-09-15T16:20:02.432Z,56.68
2022-09-15T16:25:21.510Z,57.06
2022-09-15T16:30:24.293Z,57.07
2022-09-15T16:35:46.017Z,57.20
2022-09-15T16:40:51.435Z,57.28
2022-09-15T16:45:55.240Z,57.18
2022-09-15T16:56:21.120Z,57.54
2022-09-15T17:01:25.619Z,57.95
2022-09-15T17:06:29.094Z,58.07
2022-09-15T17:11:32.313Z,59.08
2022-09-15T17:16:35.083Z,59.20
2022-09-15T17:21:37.859Z,59.70
2022-09-15T17:26:41.061Z,59.26
2022-09-15T17:31:43.811Z,58.69
2022-09-15T17:36:46.721Z,58.67
2022-09-15T17:41:49.516Z,58.90
2022-09-15T17:46:53.733Z,59.51
2022-09-15T17:51:56.518Z,60.10
2022-09-15T17:56:59.649Z,60.33
2022-09-15T18:02:02.557Z,60.93
2022-09-15T18:07:11.629Z,61.10
2022-09-15T18:12:14.777Z,61.69
2022-09-15T18:17:17.718Z,62.26
2022-09-15T18:22:23.029Z,68.72
2022-09-15T18:27:25.950Z,55.92
2022-09-15T18:32:28.741Z,53.73
2022-09-15T18:37:31.621Z,55.80
2022-09-15T18:42:35.396Z,58.21
2022-09-15T18:47:38.604Z,59.14
2022-09-15T18:52:41.957Z,59.94
2022-09-15T18:57:45.466Z,61.32
2022-09-15T19:02:48.864Z,60.82
2022-09-15T19:07:51.663Z,67.48
2022-09-15T19:12:54.777Z,60.43
2022-09-15T19:17:57.772Z,54.44
2022-09-15T19:23:00.610Z,57.00
2022-09-15T19:28:03.849Z,59.57
2022-09-15T19:33:06.954Z,60.06
2022-09-15T19:38:09.783Z,67.13
2022-09-15T19:43:12.651Z,60.56
2022-09-15T19:48:15.543Z,54.26
2022-09-15T19:53:18.744Z,56.97
2022-09-15T19:58:21.664Z,59.53
2022-09-15T20:03:29.348Z,66.18
2022-09-15T20:08:32.838Z,58.94
2022-09-15T20:13:41.420Z,55.30
2022-09-15T20:18:48.843Z,58.86
2022-09-15T20:23:52.929Z,61.06
2022-09-15T20:28:55.658Z,64.47
2022-09-15T20:34:00.973Z,62.89
2022-09-15T20:39:06.617Z,55.50
2022-09-15T20:44:09.585Z,58.37
2022-09-15T20:49:12.794Z,60.50
2022-09-15T20:54:15.639Z,66.40
2022-09-15T20:59:19.488Z,60.13
2022-09-15T21:04:22.351Z,55.54
2022-09-15T21:09:25.675Z,59.34
2022-09-15T21:14:28.455Z,66.05
2022-09-15T21:19:31.661Z,57.93
2022-09-15T21:24:34.350Z,57.94
2022-09-15T21:29:37.189Z,62.55
2022-09-15T21:34:39.955Z,63.69
2022-09-15T21:39:43.300Z,56.26
2022-09-15T21:44:46.116Z,58.64
2022-09-15T21:49:49.225Z,60.67
2022-09-15T21:54:52.024Z,66.65
2022-09-15T21:59:54.793Z,59.65
2022-09-15T22:04:59.758Z,56.35
2022-09-15T22:10:02.447Z,60.33
2022-09-15T22:15:06.309Z,65.66
2022-09-15T22:20:09.462Z,59.50
2022-09-15T22:25:12.441Z,56.25
2022-09-15T22:30:15.185Z,59.57
2022-09-15T22:35:18.021Z,65.07
2022-09-15T22:40:20.977Z,58.24
2022-09-15T22:45:23.781Z,58.63
2022-09-15T22:50:26.487Z,63.49
2022-09-15T22:55:32.416Z,61.56
2022-09-15T23:00:38.296Z,59.65
2022-09-15T23:05:41.395Z,66.78
2022-09-15T23:10:44.098Z,59.30
2022-09-15T23:15:49.116Z,57.84
2022-09-15T23:21:07.446Z,60.80
2022-09-15T23:26:12.144Z,66.83
2022-09-15T23:31:15.733Z,59.27
2022-09-15T23:36:22.018Z,57.10
2022-09-15T23:41:24.868Z,60.74
2022-09-15T23:46:27.607Z,67.01
2022-09-15T23:51:31.199Z,61.18
2022-09-15T23:56:34.047Z,57.44
